Einzelnen Beitrag anzeigen
Alt 2017-06-08, 18:01  
Sven Dolata
 
Registriert seit: 2016-01-17
Ort: EDLW
Alter: 34
Beiträge: 328
Danke erteilt: 523
506 Danksagungen in 179 Beiträgen erhalten
Standard

Zitat:
Zitat von Florian Knett Beitrag anzeigen
Und zur großen Überraschung kann man heute single runaway ops in Hamburg erwarten da die Piste 05/23 in real life seid vorgestern 23:00lcl gesperrt ist.
Bis später man hört sich auf der Frequenz ! Es wird wohl 15 single Betrieb werden. EDDH 081100Z 0812/0918 20012KT 9999 BKN030 PROB30 TEMPO 0812/0814 BKN008 BECMG 0816/0818 17007KT BECMG 0908/0911 23008KT TEMPO 0912/0916 4000 RA BKN012 TEMPO 0916/0918 SHRA
www.seidseit.de

AAARGH sorry, ich konnte es mir nicht verkneifen
__________________

----------------------------------------------------------------
Sven Dolata ist offline   Mit Zitat antworten
Danksagungen